RJTK(METAR)
04/28 17:00
METAR RJTK 280800Z 20011KT 9999 FEW025 18/05 Q1004 RMK 1CU025 A2967=
戻る
トップページへ戻る
IMOC Co,.Ltd.